Historique des mesures à Cassis (13260), France
Quotidien Résumé Mars 12, 2021 Unités:  Métrique    US   Métrique/US
Quotidien Hebdomadaire Mensuel Annuel
  Maximum: Minimum: Moyenne:
Température: 32.1 °C 24.4 °C 27.8 °C
Point de rosée: 20.9 °C 12 °C 16.8 °C
Humidité: 61% 44% 52%
Vitesse du vent: 8.6km/h 0km/h 3.6km/h
Rafales: 23km/h - -
Vent- - SSW
Pression: 1016.4 hPa 1012.1 hPa -
Précipitations: 0.0 mm    
Historical Graphs
 
 
Mesures pour : Mars 12, 2021
Heure Temperature Point de rosée Pression Vent Vitesse du vent Rafales Humidité Pluie (par heure)
00:11 25.6 °C 12.4 °C 1014.0 hPa WNW 3.2 km/h 4 km/h 44% 0.0 mm
01:11 25.1 °C 12.3 °C 1014.2 hPa WNW 6.5 km/h 6.5 km/h 45% 0.0 mm
02:11 24.6 °C 12.9 °C 1013.9 hPa NW 4 km/h 7.6 km/h 48% 0.0 mm
03:11 24.4 °C 13 °C 1013.5 hPa NNW 8.6 km/h 15.5 km/h 49% 0.0 mm
04:11 25.1 °C 13 °C 1013.9 hPa Calm   6.1 km/h 47% 0.0 mm
05:11 24.8 °C 13 °C 1012.4 hPa NW 7.6 km/h 23 km/h 48% 0.0 mm
06:11 25.1 °C 12 °C 1012.1 hPa WNW 8.3 km/h 11.9 km/h 44% 0.0 mm
07:11 25.5 °C 12.7 °C 1013.1 hPa WNW 2.2 km/h 2.9 km/h 45% 0.0 mm
08:11 25.8 °C 13.6 °C 1014.1 hPa Calm   10.1 km/h 47% 0.0 mm
09:11 26.9 °C 17.6 °C 1015.0 hPa Calm   5 km/h 57% 0.0 mm
10:11 27.4 °C 18.4 °C 1015.7 hPa Calm   4.7 km/h 58% 0.0 mm
11:11 28.2 °C 18.8 °C 1015.7 hPa NNE 2.9 km/h 4 km/h 57% 0.0 mm
12:11 30.8 °C 19.5 °C 1015.8 hPa South 3.6 km/h 9.7 km/h 51% 0.0 mm
13:11 31.8 °C 20.1 °C 1015.4 hPa SE 4 km/h 9 km/h 50% 0.0 mm
14:11 31.6 °C 19.9 °C 1015.5 hPa SE 2.2 km/h 4 km/h 50% 0.0 mm
15:11 31.4 °C 20.4 °C 1015.7 hPa SE 6.5 km/h 7.9 km/h 52% 0.0 mm
16:11 32.1 °C 20 °C 1015.1 hPa ESE 2.9 km/h 8.3 km/h 49% 0.0 mm
17:11 31.9 °C 20.5 °C 1015.1 hPa ESE 3.6 km/h 8.6 km/h 51% 0.0 mm
18:11 31.3 °C 20.9 °C 1014.7 hPa SSE 5 km/h 8.3 km/h 54% 0.0 mm
19:11 30.1 °C 20.6 °C 1016.0 hPa South 8.3 km/h 8.3 km/h 57% 0.0 mm
20:11 28.5 °C 19.1 °C 1015.7 hPa Calm   1.4 km/h 57% 0.0 mm
21:11 27.2 °C 19 °C 1015.5 hPa SW 3.6 km/h 3.6 km/h 61% 0.0 mm
22:11 26.1 °C 18 °C 1015.9 hPa WSW 4 km/h 4.7 km/h 61% 0.0 mm
23:11 25.6 °C 16.2 °C 1016.4 hPa Calm   2.2 km/h 56% 0.0 mm
Observations météo à CASSIS
WU-History script by Weather Underground - 2 mb